createdAt,value
2023-01-10T00:01:40.720Z,87.49
2023-01-10T00:07:57.534Z,87.18
2023-01-10T00:13:20.023Z,87.44
2023-01-10T00:18:24.597Z,87.74
2023-01-10T00:23:28.601Z,88.38
2023-01-10T00:28:59.061Z,88.98
2023-01-10T00:34:02.671Z,88.36
2023-01-10T00:39:12.630Z,87.51
2023-01-10T00:44:17.811Z,87.27
2023-01-10T00:49:21.579Z,87.78
2023-01-10T00:54:25.325Z,87.75
2023-01-10T00:59:31.698Z,87.95
2023-01-10T01:04:35.677Z,88.38
2023-01-10T01:09:59.575Z,89.02
2023-01-10T01:15:04.648Z,89.82
2023-01-10T01:20:09.859Z,90.43
2023-01-10T01:25:13.592Z,90.97
2023-01-10T01:30:18.851Z,91.98
2023-01-10T01:35:22.877Z,93.43
2023-01-10T01:40:26.515Z,93.53
2023-01-10T01:45:38.455Z,94.32
2023-01-10T01:50:48.003Z,94.27
2023-01-10T01:55:52.931Z,94.88
2023-01-10T02:00:59.013Z,94.66
2023-01-10T02:06:02.621Z,94.79
2023-01-10T02:11:11.016Z,95.04
2023-01-10T02:16:16.677Z,95.24
2023-01-10T02:21:37.417Z,95.82
2023-01-10T02:27:02.229Z,95.45
2023-01-10T02:32:40.637Z,95.28
2023-01-10T02:38:00.515Z,95.16
2023-01-10T02:43:10.167Z,95.00
2023-01-10T02:48:15.119Z,94.91
2023-01-10T02:53:23.210Z,95.11
2023-01-10T02:58:39.653Z,95.08
2023-01-10T03:03:53.275Z,94.20
2023-01-10T03:09:03.149Z,93.71
2023-01-10T03:14:10.383Z,93.87
2023-01-10T03:19:18.962Z,93.39
2023-01-10T03:24:28.873Z,93.84
2023-01-10T03:29:38.329Z,94.24
2023-01-10T03:34:43.164Z,93.74
2023-01-10T03:39:55.285Z,94.38
2023-01-10T03:45:03.654Z,94.39
2023-01-10T03:50:13.699Z,93.80
2023-01-10T03:55:21.961Z,94.02
2023-01-10T04:00:26.194Z,94.07
2023-01-10T04:05:31.333Z,93.41
2023-01-10T04:10:34.718Z,93.27
2023-01-10T04:15:38.086Z,93.35
2023-01-10T04:20:42.858Z,93.33
2023-01-10T04:25:48.334Z,92.90
2023-01-10T04:30:51.707Z,92.60
2023-01-10T04:35:58.013Z,92.55
2023-01-10T04:41:01.502Z,91.99
2023-01-10T04:46:05.078Z,91.46
2023-01-10T04:51:09.934Z,91.73
2023-01-10T04:56:18.919Z,91.82
2023-01-10T05:01:23.977Z,92.38
2023-01-10T05:06:28.788Z,91.64
2023-01-10T05:11:32.179Z,92.39
2023-01-10T05:16:36.645Z,92.54
2023-01-10T05:21:42.443Z,92.73
2023-01-10T05:26:45.861Z,92.51
2023-01-10T05:31:51.674Z,92.72
2023-01-10T05:36:56.796Z,92.26
2023-01-10T05:42:00.795Z,92.41
2023-01-10T05:47:04.212Z,91.99
2023-01-10T05:52:08.987Z,91.72
2023-01-10T05:57:12.597Z,90.94
2023-01-10T06:02:16.296Z,90.99
2023-01-10T06:07:21.122Z,90.56
2023-01-10T06:12:24.472Z,90.51
2023-01-10T06:17:27.908Z,90.71
2023-01-10T06:22:32.643Z,89.33
2023-01-10T06:27:36.019Z,88.41
2023-01-10T06:32:40.595Z,88.68
2023-01-10T06:37:45.637Z,88.24
2023-01-10T06:42:50.499Z,88.20
2023-01-10T06:47:53.902Z,87.45
2023-01-10T06:52:59.934Z,86.86
2023-01-10T06:58:05.680Z,86.15
2023-01-10T07:03:10.705Z,85.60
2023-01-10T07:08:15.657Z,85.15
2023-01-10T07:13:19.380Z,83.43
2023-01-10T07:18:22.792Z,83.66
2023-01-10T07:23:28.702Z,82.82
2023-01-10T07:28:34.453Z,82.36
2023-01-10T07:33:37.833Z,82.44
2023-01-10T07:38:42.868Z,82.26
2023-01-10T07:43:46.826Z,81.36
2023-01-10T07:48:50.474Z,81.07
2023-01-10T07:53:55.551Z,81.11
2023-01-10T07:58:59.721Z,81.10
2023-01-10T08:04:03.504Z,80.63
2023-01-10T08:09:08.518Z,80.80
2023-01-10T08:14:12.443Z,80.42
2023-01-10T08:19:17.978Z,79.90
2023-01-10T08:24:22.764Z,79.81
2023-01-10T08:29:26.364Z,78.91
2023-01-10T08:34:29.797Z,79.03
2023-01-10T08:39:35.553Z,78.66
2023-01-10T08:44:39.348Z,77.62
2023-01-10T08:49:42.761Z,77.52
2023-01-10T08:54:47.759Z,76.72
2023-01-10T08:59:51.144Z,77.27
2023-01-10T09:04:54.543Z,76.43
2023-01-10T09:09:59.339Z,76.73
2023-01-10T09:15:03.486Z,76.02
2023-01-10T09:20:10.286Z,75.70
2023-01-10T09:25:15.946Z,75.75
2023-01-10T09:30:19.867Z,75.83
2023-01-10T09:35:23.388Z,75.98
2023-01-10T09:40:41.247Z,75.34
2023-01-10T09:45:53.398Z,75.93
2023-01-10T09:51:10.024Z,75.83
2023-01-10T09:56:17.092Z,76.08
2023-01-10T10:01:24.491Z,75.98
2023-01-10T10:06:27.965Z,75.11
2023-01-10T10:12:01.798Z,73.32
2023-01-10T10:17:21.319Z,72.94
2023-01-10T10:22:35.357Z,72.86
2023-01-10T10:27:46.172Z,70.94
2023-01-10T10:33:07.749Z,69.55
2023-01-10T10:38:15.729Z,70.72
2023-01-10T10:43:26.183Z,71.63
2023-01-10T10:48:32.518Z,71.27
2023-01-10T10:53:36.718Z,71.69
2023-01-10T10:58:44.448Z,71.81
2023-01-10T11:03:50.739Z,71.11
2023-01-10T11:08:57.686Z,69.08
2023-01-10T11:14:04.150Z,68.47
2023-01-10T11:19:22.179Z,68.44
2023-01-10T11:24:30.146Z,67.67
2023-01-10T11:29:40.746Z,68.29
2023-01-10T11:34:53.748Z,67.89
2023-01-10T11:40:23.892Z,66.14
2023-01-10T11:45:34.376Z,66.94
2023-01-10T11:50:42.892Z,66.93
2023-01-10T11:55:49.574Z,66.68
2023-01-10T12:00:54.446Z,66.84
2023-01-10T12:06:02.001Z,67.84
2023-01-10T12:11:07.885Z,67.81
2023-01-10T12:16:27.443Z,67.09
2023-01-10T12:21:39.550Z,67.94
2023-01-10T12:26:43.891Z,67.67
2023-01-10T12:31:48.673Z,68.04
2023-01-10T12:37:02.390Z,67.78
2023-01-10T12:42:32.973Z,67.55
2023-01-10T12:47:54.770Z,67.14
2023-01-10T12:53:04.184Z,67.17
2023-01-10T12:58:11.950Z,66.30
2023-01-10T13:03:21.595Z,65.80
2023-01-10T13:08:28.134Z,65.42
2023-01-10T13:13:36.172Z,65.23
2023-01-10T13:19:00.217Z,64.93
2023-01-10T13:24:05.783Z,64.41
2023-01-10T13:29:13.705Z,64.25
2023-01-10T13:34:20.613Z,64.23
2023-01-10T13:39:28.995Z,63.68
2023-01-10T13:45:13.496Z,64.73
2023-01-10T13:50:59.317Z,65.05
2023-01-10T13:56:04.069Z,66.21
2023-01-10T14:01:42.464Z,65.36
2023-01-10T14:06:45.967Z,66.22
2023-01-10T14:11:54.591Z,67.56
2023-01-10T14:17:09.849Z,67.85
2023-01-10T14:22:27.520Z,68.42
2023-01-10T14:27:43.545Z,68.76
2023-01-10T14:32:51.728Z,68.65
2023-01-10T14:37:58.038Z,68.54
2023-01-10T14:43:07.972Z,68.21
2023-01-10T14:48:29.473Z,67.43
2023-01-10T14:53:33.730Z,67.13
2023-01-10T14:58:38.521Z,71.34
2023-01-10T15:03:47.098Z,72.21
2023-01-10T15:08:58.140Z,71.29
2023-01-10T15:14:10.935Z,70.92
2023-01-10T15:19:18.984Z,71.21
2023-01-10T15:24:33.573Z,71.62
2023-01-10T15:29:44.732Z,72.50
2023-01-10T15:34:50.384Z,73.96
2023-01-10T15:39:55.047Z,76.57
2023-01-10T15:45:19.637Z,78.04
2023-01-10T15:50:27.054Z,79.11
2023-01-10T15:55:39.727Z,78.60
2023-01-10T16:00:47.135Z,78.50
2023-01-10T16:05:54.827Z,79.00
2023-01-10T16:11:01.118Z,79.31
2023-01-10T16:16:16.844Z,79.90
2023-01-10T16:21:21.943Z,80.83
2023-01-10T16:26:25.460Z,81.89
2023-01-10T16:31:30.532Z,82.21
2023-01-10T16:36:34.257Z,81.99
2023-01-10T16:41:54.750Z,81.87
2023-01-10T16:47:00.501Z,82.40
2023-01-10T16:52:03.949Z,82.98
2023-01-10T16:57:07.395Z,84.26
2023-01-10T17:02:21.928Z,84.81
2023-01-10T17:07:25.366Z,85.32
2023-01-10T17:12:35.569Z,86.11
2023-01-10T17:17:44.342Z,86.75
2023-01-10T17:22:48.140Z,86.37
2023-01-10T17:27:51.648Z,87.10
2023-01-10T17:32:57.629Z,86.78
2023-01-10T17:38:01.474Z,86.48
2023-01-10T17:43:05.702Z,84.15
2023-01-10T17:48:13.112Z,82.29
2023-01-10T17:53:19.122Z,82.31
2023-01-10T17:58:23.338Z,80.59
2023-01-10T18:03:28.250Z,80.40
2023-01-10T18:08:31.999Z,79.24
2023-01-10T18:13:35.673Z,79.05
2023-01-10T18:18:40.770Z,79.01
2023-01-10T18:23:44.512Z,79.75
2023-01-10T18:28:48.040Z,79.44
2023-01-10T18:33:53.833Z,80.20
2023-01-10T18:38:58.599Z,80.82
2023-01-10T18:44:02.747Z,80.52
2023-01-10T18:49:07.610Z,79.55
2023-01-10T18:54:11.241Z,78.23
2023-01-10T18:59:15.476Z,76.78
2023-01-10T19:04:20.412Z,76.24
2023-01-10T19:09:24.404Z,75.97
2023-01-10T19:14:28.260Z,76.35
2023-01-10T19:19:33.061Z,76.69
2023-01-10T19:24:37.910Z,77.17
2023-01-10T19:29:42.512Z,77.67
2023-01-10T19:34:47.612Z,78.34
2023-01-10T19:39:51.730Z,78.70
2023-01-10T19:44:55.552Z,79.07
2023-01-10T19:50:00.868Z,80.32
2023-01-10T19:55:07.381Z,80.52
2023-01-10T20:00:12.472Z,81.44
2023-01-10T20:05:17.653Z,81.27
2023-01-10T20:10:21.551Z,81.96
2023-01-10T20:15:25.084Z,81.81
2023-01-10T20:20:31.768Z,81.25
2023-01-10T20:25:35.184Z,81.49
2023-01-10T20:30:38.778Z,80.73
2023-01-10T20:35:44.334Z,81.51
2023-01-10T20:40:47.816Z,81.42
2023-01-10T20:45:51.424Z,82.19
2023-01-10T20:50:57.279Z,83.21
2023-01-10T20:56:04.145Z,82.39
2023-01-10T21:01:08.358Z,82.68
2023-01-10T21:06:13.788Z,83.21
2023-01-10T21:11:18.528Z,83.18
2023-01-10T21:16:22.850Z,83.77
2023-01-10T21:21:27.939Z,83.50
2023-01-10T21:26:31.631Z,83.71
2023-01-10T21:31:35.278Z,84.05
2023-01-10T21:36:40.531Z,84.27
2023-01-10T21:42:01.214Z,84.66
2023-01-10T21:47:05.118Z,85.07
2023-01-10T21:52:10.113Z,84.99
2023-01-10T21:57:13.997Z,85.60
2023-01-10T22:02:19.923Z,85.21
2023-01-10T22:07:26.646Z,85.78
2023-01-10T22:12:30.793Z,85.75
2023-01-10T22:17:34.446Z,85.67
2023-01-10T22:22:40.256Z,85.79
2023-01-10T22:27:45.184Z,86.61
2023-01-10T22:32:48.672Z,86.70
2023-01-10T22:37:56.735Z,87.11
2023-01-10T22:43:00.635Z,88.08
2023-01-10T22:48:04.384Z,88.24
2023-01-10T22:53:09.285Z,89.04
2023-01-10T22:58:12.774Z,89.52
2023-01-10T23:03:16.127Z,89.59
2023-01-10T23:08:21.149Z,89.46
2023-01-10T23:13:25.342Z,90.25
2023-01-10T23:18:30.412Z,90.19
2023-01-10T23:23:35.722Z,89.90
2023-01-10T23:28:40.377Z,89.78
2023-01-10T23:33:44.129Z,89.17
2023-01-10T23:38:49.225Z,89.52
2023-01-10T23:43:53.280Z,89.71
2023-01-10T23:48:56.664Z,89.41
2023-01-10T23:54:01.799Z,89.79
2023-01-10T23:59:05.538Z,90.48
